Startpagina
METAR-TAF:

METAR-TAF

Vliegvelden :

Lublin, Polen

breedte: 51-13-55N, lengte: 22-41-25E, hoogte: 203 m

Actueel weer

Dit bericht is 26 minuten geleden gemaakt, om 10:30 UTC
Wind 12 kt uit het westnoordwesten
Temperatuur 8°C
Vochtigheid 93%
Druk 1024 hPa
Zicht 10 km of meer
Gebroken wolken op 1400 ft
Gebroken wolken op 2400 ft
lichte regen

METAR: EPLB 141030Z 29012KT 9999 -RA BKN014 BKN024 08/07 Q1024

Tijdstip: 11:56 (10:56 UTC)

Verwachting

Dit bericht is 2 uur en het 26 minuten geleden gemaakt, om 08:30 UTC
Verwachting geldig van 14 om 09 UTC tot 14 om 18 UTC
Wind 10 kt uit het westen
Zicht 10 km of meer
Gebroken wolken op 1500 ft
Tijdelijke
van 14 om 09 UTC tot 14 om 16 UTC
Wind 15 kt uit het westnoordwesten met uitschieters tot 25 kt
Verspreide wolken op 700 ft
Gebroken wolken op 1400 ft, Cumulonimbus.
lichte regenbuien

TAF: EPLB 140830Z 1409/1418 28010KT 9999 BKN015 TEMPO 1409/1416 29015G25KT -SHRA SCT007 BKN014CB

Waarnemingen en weersverwachtingen van meer dan 4000 vliegvelden (METAR en TAF).

De beschikbare stations zijn de gele en rode punten op de kaart.

Ga met uw muis naar het station om de naam te zien.

Klik dan om waarnemingen en weersverwachtingen te zien.

kaart wijzigen: klik op de groene knoppen met een zwart kruis om in te zoomen, op de groene knop met een streepje om uit te zoomen of op de groene pijlen voor aangrenzende kaarten.


METAR-TAF: